createdAt,value
2019-05-01T00:05:04.835Z,23.6
2019-05-01T00:20:02.782Z,23.6
2019-05-01T00:35:05.127Z,23.5
2019-05-01T00:50:03.232Z,23.5
2019-05-01T01:05:03.729Z,23.5
2019-05-01T01:20:05.410Z,23.4
2019-05-01T01:35:03.954Z,23.2
2019-05-01T01:50:03.728Z,23.1
2019-05-01T02:05:03.610Z,23
2019-05-01T02:20:03.895Z,23
2019-05-01T02:35:03.717Z,22.9
2019-05-01T02:50:06.052Z,22.9
2019-05-01T03:05:04.198Z,22.8
2019-05-01T03:20:03.176Z,22.8
2019-05-01T03:35:04.140Z,22.8
2019-05-01T03:50:02.990Z,22.8
2019-05-01T04:05:07.094Z,22.8
2019-05-01T04:20:03.609Z,22.8
2019-05-01T04:35:05.955Z,22.8
2019-05-01T04:50:04.143Z,22.8
2019-05-01T05:05:03.017Z,22.8
2019-05-01T05:20:03.585Z,22.8
2019-05-01T05:35:05.455Z,22.9
2019-05-01T05:50:03.594Z,22.9
2019-05-01T06:05:04.642Z,23
2019-05-01T06:20:05.078Z,23
2019-05-01T06:35:04.459Z,23.1
2019-05-01T06:50:05.826Z,23.1
2019-05-01T07:05:04.182Z,23.1
2019-05-01T07:20:03.781Z,23.2
2019-05-01T07:35:05.894Z,23.2
2019-05-01T07:50:04.020Z,23.3
2019-05-01T08:05:09.842Z,23.3
2019-05-01T08:20:04.864Z,23.3
2019-05-01T08:35:03.750Z,23.4
2019-05-01T08:50:05.202Z,23.4
2019-05-01T09:05:07.074Z,23.4
2019-05-01T09:20:04.818Z,23.5
2019-05-01T09:35:15.018Z,23.5
2019-05-01T09:50:04.318Z,23.6
2019-05-01T10:05:06.622Z,23.6
2019-05-01T10:20:03.405Z,23.6
2019-05-01T10:35:05.118Z,23.6
2019-05-01T10:50:03.573Z,23.6
2019-05-01T11:05:06.907Z,23.6
2019-05-01T11:20:03.264Z,23.7
2019-05-01T11:35:03.797Z,23.7
2019-05-01T11:50:07.053Z,23.7
2019-05-01T12:05:05.121Z,23.7
2019-05-01T12:20:04.768Z,23.9
2019-05-01T12:35:07.783Z,24
2019-05-01T12:50:11.408Z,24.1
2019-05-01T13:05:03.576Z,24.1
2019-05-01T13:20:05.037Z,24.2
2019-05-01T13:35:03.059Z,24.2
2019-05-01T13:50:03.774Z,24.2
2019-05-01T14:05:06.463Z,24.2
2019-05-01T14:20:03.953Z,24.2
2019-05-01T14:35:03.499Z,24.2
2019-05-01T14:50:04.164Z,24.2
2019-05-01T15:05:05.198Z,24.2
2019-05-01T15:20:03.899Z,24.2
2019-05-01T15:35:03.214Z,24.2
2019-05-01T15:50:03.500Z,24.3
2019-05-01T16:05:06.291Z,24.3
2019-05-01T16:20:04.622Z,24.3
2019-05-01T16:35:05.060Z,24.4
2019-05-01T16:50:03.720Z,24.5
2019-05-01T17:05:04.907Z,24.6
2019-05-01T17:20:07.612Z,24.7
2019-05-01T17:35:06.554Z,24.7
2019-05-01T17:50:03.400Z,24.7
2019-05-01T18:05:03.996Z,24.7
2019-05-01T18:20:03.408Z,24.5
2019-05-01T18:35:03.721Z,24.3
2019-05-01T18:50:05.010Z,24.1
2019-05-01T19:05:04.046Z,24
2019-05-01T19:20:05.610Z,23.8
2019-05-01T19:35:03.854Z,23.7
2019-05-01T19:50:07.295Z,23.5
2019-05-01T20:05:04.873Z,23.4
2019-05-01T20:20:03.197Z,23.1
2019-05-01T20:35:03.495Z,23
2019-05-01T20:50:04.932Z,22.8
2019-05-01T21:05:02.987Z,22.7
2019-05-01T21:20:05.249Z,22.8
2019-05-01T21:35:04.902Z,22.9
2019-05-01T21:50:03.319Z,22.9
2019-05-01T22:05:03.991Z,22.9
2019-05-01T22:20:03.558Z,22.9
2019-05-01T22:35:03.917Z,22.9
2019-05-01T22:50:03.446Z,22.9
2019-05-01T23:05:03.839Z,23
2019-05-01T23:20:05.112Z,22.9
2019-05-01T23:35:02.939Z,22.9
2019-05-01T23:50:03.149Z,22.9
